sensor_id;sensor_type;location;lat;lon;timestamp;temperature;humidity
39951;DHT22;25629;51.444;-2.606;2023-04-03T00:00:29;6.70;1.00
39951;DHT22;25629;51.444;-2.606;2023-04-03T00:02:54;6.60;1.00
39951;DHT22;25629;51.444;-2.606;2023-04-03T00:05:20;6.60;1.00
39951;DHT22;25629;51.444;-2.606;2023-04-03T00:07:46;6.60;1.00
39951;DHT22;25629;51.444;-2.606;2023-04-03T00:10:12;6.60;1.00
39951;DHT22;25629;51.444;-2.606;2023-04-03T00:12:39;6.60;1.00
39951;DHT22;25629;51.444;-2.606;2023-04-03T00:15:05;6.50;1.00
39951;DHT22;25629;51.444;-2.606;2023-04-03T00:17:31;6.50;1.00
39951;DHT22;25629;51.444;-2.606;2023-04-03T00:19:56;6.50;1.00
39951;DHT22;25629;51.444;-2.606;2023-04-03T00:22:22;6.50;1.00
39951;DHT22;25629;51.444;-2.606;2023-04-03T00:24:48;6.50;1.00
39951;DHT22;25629;51.444;-2.606;2023-04-03T00:27:13;6.50;1.00
39951;DHT22;25629;51.444;-2.606;2023-04-03T00:29:41;6.40;1.00
39951;DHT22;25629;51.444;-2.606;2023-04-03T00:32:06;6.40;1.00
39951;DHT22;25629;51.444;-2.606;2023-04-03T00:34:32;6.40;1.00
39951;DHT22;25629;51.444;-2.606;2023-04-03T00:36:58;6.40;1.00
39951;DHT22;25629;51.444;-2.606;2023-04-03T00:39:24;6.40;1.00
39951;DHT22;25629;51.444;-2.606;2023-04-03T00:41:49;6.30;1.00
39951;DHT22;25629;51.444;-2.606;2023-04-03T00:47:05;6.20;1.00
39951;DHT22;25629;51.444;-2.606;2023-04-03T00:49:32;6.20;1.00
39951;DHT22;25629;51.444;-2.606;2023-04-03T00:51:58;6.20;1.00
39951;DHT22;25629;51.444;-2.606;2023-04-03T00:54:25;6.20;1.00
39951;DHT22;25629;51.444;-2.606;2023-04-03T00:56:53;6.10;1.00
39951;DHT22;25629;51.444;-2.606;2023-04-03T00:59:26;6.10;1.00
39951;DHT22;25629;51.444;-2.606;2023-04-03T01:01:53;6.10;1.00
39951;DHT22;25629;51.444;-2.606;2023-04-03T01:04:35;6.10;1.00
39951;DHT22;25629;51.444;-2.606;2023-04-03T01:07:08;6.10;1.00
39951;DHT22;25629;51.444;-2.606;2023-04-03T01:09:35;6.10;1.00
39951;DHT22;25629;51.444;-2.606;2023-04-03T01:12:34;6.00;1.00
39951;DHT22;25629;51.444;-2.606;2023-04-03T01:15:07;6.10;7.00
39951;DHT22;25629;51.444;-2.606;2023-04-03T01:25:40;5.90;6.00
39951;DHT22;25629;51.444;-2.606;2023-04-03T01:28:09;5.80;8.80
39951;DHT22;25629;51.444;-2.606;2023-04-03T01:33:27;5.80;18.50
39951;DHT22;25629;51.444;-2.606;2023-04-03T01:35:53;5.80;13.90
39951;DHT22;25629;51.444;-2.606;2023-04-03T01:38:18;5.70;17.90
39951;DHT22;25629;51.444;-2.606;2023-04-03T01:40:44;5.70;19.40
39951;DHT22;25629;51.444;-2.606;2023-04-03T01:43:10;5.70;18.50
39951;DHT22;25629;51.444;-2.606;2023-04-03T01:45:36;5.70;16.40
39951;DHT22;25629;51.444;-2.606;2023-04-03T01:48:01;5.60;21.80
39951;DHT22;25629;51.444;-2.606;2023-04-03T01:50:27;5.50;24.60
39951;DHT22;25629;51.444;-2.606;2023-04-03T01:52:53;5.50;26.30
39951;DHT22;25629;51.444;-2.606;2023-04-03T01:55:18;5.50;24.20
39951;DHT22;25629;51.444;-2.606;2023-04-03T01:57:44;5.50;24.90
39951;DHT22;25629;51.444;-2.606;2023-04-03T02:00:11;5.50;33.00
39951;DHT22;25629;51.444;-2.606;2023-04-03T02:02:37;5.50;30.90
39951;DHT22;25629;51.444;-2.606;2023-04-03T02:05:03;5.50;40.70
39951;DHT22;25629;51.444;-2.606;2023-04-03T02:07:28;5.40;42.20
39951;DHT22;25629;51.444;-2.606;2023-04-03T02:09:54;5.40;40.90
39951;DHT22;25629;51.444;-2.606;2023-04-03T02:12:20;5.40;43.00
39951;DHT22;25629;51.444;-2.606;2023-04-03T02:14:46;5.40;44.20
39951;DHT22;25629;51.444;-2.606;2023-04-03T02:17:11;5.40;38.30
39951;DHT22;25629;51.444;-2.606;2023-04-03T02:19:37;5.30;44.80
39951;DHT22;25629;51.444;-2.606;2023-04-03T02:22:03;5.30;46.20
39951;DHT22;25629;51.444;-2.606;2023-04-03T02:24:29;5.30;54.40
39951;DHT22;25629;51.444;-2.606;2023-04-03T02:26:55;5.30;49.70
39951;DHT22;25629;51.444;-2.606;2023-04-03T02:29:21;5.30;52.90
39951;DHT22;25629;51.444;-2.606;2023-04-03T02:31:46;5.30;57.90
39951;DHT22;25629;51.444;-2.606;2023-04-03T02:34:12;5.20;58.00
39951;DHT22;25629;51.444;-2.606;2023-04-03T02:36:38;5.20;57.50
39951;DHT22;25629;51.444;-2.606;2023-04-03T02:39:04;5.20;60.70
39951;DHT22;25629;51.444;-2.606;2023-04-03T02:41:30;5.20;56.20
39951;DHT22;25629;51.444;-2.606;2023-04-03T02:44:04;5.20;60.40
39951;DHT22;25629;51.444;-2.606;2023-04-03T02:46:30;5.20;56.80
39951;DHT22;25629;51.444;-2.606;2023-04-03T02:48:56;5.10;61.00
39951;DHT22;25629;51.444;-2.606;2023-04-03T02:51:22;5.10;64.30
39951;DHT22;25629;51.444;-2.606;2023-04-03T02:53:51;5.00;66.40
39951;DHT22;25629;51.444;-2.606;2023-04-03T02:56:17;5.00;74.60
39951;DHT22;25629;51.444;-2.606;2023-04-03T02:58:44;5.00;69.00
39951;DHT22;25629;51.444;-2.606;2023-04-03T03:01:10;5.00;68.80
39951;DHT22;25629;51.444;-2.606;2023-04-03T03:03:35;5.00;75.20
39951;DHT22;25629;51.444;-2.606;2023-04-03T03:06:07;5.00;75.40
39951;DHT22;25629;51.444;-2.606;2023-04-03T03:08:33;5.00;77.30
39951;DHT22;25629;51.444;-2.606;2023-04-03T03:10:59;4.90;77.60
39951;DHT22;25629;51.444;-2.606;2023-04-03T03:13:26;4.90;73.50
39951;DHT22;25629;51.444;-2.606;2023-04-03T03:15:51;4.90;75.10
39951;DHT22;25629;51.444;-2.606;2023-04-03T03:18:17;4.90;76.00
39951;DHT22;25629;51.444;-2.606;2023-04-03T03:20:43;4.90;74.70
39951;DHT22;25629;51.444;-2.606;2023-04-03T03:23:09;4.90;76.00
39951;DHT22;25629;51.444;-2.606;2023-04-03T03:25:39;4.90;78.80
39951;DHT22;25629;51.444;-2.606;2023-04-03T03:28:06;4.80;78.90
39951;DHT22;25629;51.444;-2.606;2023-04-03T03:30:31;4.80;80.30
39951;DHT22;25629;51.444;-2.606;2023-04-03T03:32:57;4.80;78.20
39951;DHT22;25629;51.444;-2.606;2023-04-03T03:35:23;4.80;81.10
39951;DHT22;25629;51.444;-2.606;2023-04-03T03:37:49;4.80;83.40
39951;DHT22;25629;51.444;-2.606;2023-04-03T03:40:14;4.70;81.50
39951;DHT22;25629;51.444;-2.606;2023-04-03T03:42:40;4.70;84.50
39951;DHT22;25629;51.444;-2.606;2023-04-03T03:45:07;4.70;87.60
39951;DHT22;25629;51.444;-2.606;2023-04-03T03:47:32;4.70;88.30
39951;DHT22;25629;51.444;-2.606;2023-04-03T03:49:58;4.60;87.70
39951;DHT22;25629;51.444;-2.606;2023-04-03T03:52:24;4.60;89.20
39951;DHT22;25629;51.444;-2.606;2023-04-03T03:54:50;4.60;88.00
39951;DHT22;25629;51.444;-2.606;2023-04-03T03:57:16;4.60;86.80
39951;DHT22;25629;51.444;-2.606;2023-04-03T03:59:42;4.60;88.40
39951;DHT22;25629;51.444;-2.606;2023-04-03T04:02:10;4.50;86.90
39951;DHT22;25629;51.444;-2.606;2023-04-03T04:04:36;4.50;88.60
39951;DHT22;25629;51.444;-2.606;2023-04-03T04:07:02;4.50;90.10
39951;DHT22;25629;51.444;-2.606;2023-04-03T04:09:28;4.40;90.00
39951;DHT22;25629;51.444;-2.606;2023-04-03T04:11:53;4.40;90.30
39951;DHT22;25629;51.444;-2.606;2023-04-03T04:14:19;4.40;91.30
39951;DHT22;25629;51.444;-2.606;2023-04-03T04:16:48;4.30;91.70
39951;DHT22;25629;51.444;-2.606;2023-04-03T04:19:14;4.30;91.60
39951;DHT22;25629;51.444;-2.606;2023-04-03T04:21:40;4.30;92.90
39951;DHT22;25629;51.444;-2.606;2023-04-03T04:24:07;4.20;93.40
39951;DHT22;25629;51.444;-2.606;2023-04-03T04:26:33;4.20;93.80
39951;DHT22;25629;51.444;-2.606;2023-04-03T04:28:59;4.20;93.90
39951;DHT22;25629;51.444;-2.606;2023-04-03T04:31:25;4.10;94.50
39951;DHT22;25629;51.444;-2.606;2023-04-03T04:33:51;4.10;95.40
39951;DHT22;25629;51.444;-2.606;2023-04-03T04:36:17;4.10;96.10
39951;DHT22;25629;51.444;-2.606;2023-04-03T04:38:42;4.10;95.30
39951;DHT22;25629;51.444;-2.606;2023-04-03T04:41:08;4.10;95.00
39951;DHT22;25629;51.444;-2.606;2023-04-03T04:43:34;4.10;95.00
39951;DHT22;25629;51.444;-2.606;2023-04-03T04:46:10;4.10;95.00
39951;DHT22;25629;51.444;-2.606;2023-04-03T04:48:37;4.10;94.70
39951;DHT22;25629;51.444;-2.606;2023-04-03T04:51:03;4.10;94.80
39951;DHT22;25629;51.444;-2.606;2023-04-03T04:53:29;4.10;94.00
39951;DHT22;25629;51.444;-2.606;2023-04-03T04:55:55;4.00;92.90
39951;DHT22;25629;51.444;-2.606;2023-04-03T04:58:21;4.00;92.70
39951;DHT22;25629;51.444;-2.606;2023-04-03T05:00:47;4.00;93.80
39951;DHT22;25629;51.444;-2.606;2023-04-03T05:03:13;4.00;92.40
39951;DHT22;25629;51.444;-2.606;2023-04-03T05:05:38;4.00;93.00
39951;DHT22;25629;51.444;-2.606;2023-04-03T05:08:05;4.00;91.60
39951;DHT22;25629;51.444;-2.606;2023-04-03T05:10:30;4.00;91.60
39951;DHT22;25629;51.444;-2.606;2023-04-03T05:12:57;3.90;93.40
39951;DHT22;25629;51.444;-2.606;2023-04-03T05:15:23;3.90;93.30
39951;DHT22;25629;51.444;-2.606;2023-04-03T05:17:48;3.90;93.50
39951;DHT22;25629;51.444;-2.606;2023-04-03T05:20:14;3.90;92.30
39951;DHT22;25629;51.444;-2.606;2023-04-03T05:22:40;3.90;92.30
39951;DHT22;25629;51.444;-2.606;2023-04-03T05:25:06;3.90;92.10
39951;DHT22;25629;51.444;-2.606;2023-04-03T05:27:32;3.80;92.60
39951;DHT22;25629;51.444;-2.606;2023-04-03T05:29:58;3.80;93.90
39951;DHT22;25629;51.444;-2.606;2023-04-03T05:32:25;3.80;94.10
39951;DHT22;25629;51.444;-2.606;2023-04-03T05:34:53;3.80;94.50
39951;DHT22;25629;51.444;-2.606;2023-04-03T05:37:19;3.80;94.70
39951;DHT22;25629;51.444;-2.606;2023-04-03T05:39:44;3.80;95.00
39951;DHT22;25629;51.444;-2.606;2023-04-03T05:42:10;3.80;94.70
39951;DHT22;25629;51.444;-2.606;2023-04-03T05:44:37;3.80;95.60
39951;DHT22;25629;51.444;-2.606;2023-04-03T05:47:02;3.80;94.50
39951;DHT22;25629;51.444;-2.606;2023-04-03T05:49:28;3.80;94.40
39951;DHT22;25629;51.444;-2.606;2023-04-03T05:51:54;3.80;94.20
39951;DHT22;25629;51.444;-2.606;2023-04-03T05:54:27;3.70;93.50
39951;DHT22;25629;51.444;-2.606;2023-04-03T05:56:55;3.80;93.90
39951;DHT22;25629;51.444;-2.606;2023-04-03T05:59:21;3.70;94.40
39951;DHT22;25629;51.444;-2.606;2023-04-03T06:01:47;3.70;94.20
39951;DHT22;25629;51.444;-2.606;2023-04-03T06:04:13;3.80;94.00
39951;DHT22;25629;51.444;-2.606;2023-04-03T06:06:47;3.70;93.10
39951;DHT22;25629;51.444;-2.606;2023-04-03T06:09:15;3.70;94.30
39951;DHT22;25629;51.444;-2.606;2023-04-03T06:11:41;3.60;94.30
39951;DHT22;25629;51.444;-2.606;2023-04-03T06:14:08;3.70;94.50
39951;DHT22;25629;51.444;-2.606;2023-04-03T06:16:33;3.70;94.60
39951;DHT22;25629;51.444;-2.606;2023-04-03T06:18:59;3.70;94.20
39951;DHT22;25629;51.444;-2.606;2023-04-03T06:21:25;3.80;93.30
39951;DHT22;25629;51.444;-2.606;2023-04-03T06:23:51;3.70;93.70
39951;DHT22;25629;51.444;-2.606;2023-04-03T06:26:17;3.80;93.50
39951;DHT22;25629;51.444;-2.606;2023-04-03T06:28:43;3.80;94.00
39951;DHT22;25629;51.444;-2.606;2023-04-03T06:31:09;3.80;94.50
39951;DHT22;25629;51.444;-2.606;2023-04-03T06:33:35;3.80;95.00
39951;DHT22;25629;51.444;-2.606;2023-04-03T06:36:04;3.80;94.80
39951;DHT22;25629;51.444;-2.606;2023-04-03T06:38:31;3.80;93.70
39951;DHT22;25629;51.444;-2.606;2023-04-03T06:40:57;3.90;93.60
39951;DHT22;25629;51.444;-2.606;2023-04-03T06:43:22;3.90;90.60
39951;DHT22;25629;51.444;-2.606;2023-04-03T06:45:48;3.90;91.50
39951;DHT22;25629;51.444;-2.606;2023-04-03T06:48:14;4.00;90.50
39951;DHT22;25629;51.444;-2.606;2023-04-03T06:50:39;4.00;90.00
39951;DHT22;25629;51.444;-2.606;2023-04-03T06:53:06;4.00;88.50
39951;DHT22;25629;51.444;-2.606;2023-04-03T06:55:33;4.10;87.60
39951;DHT22;25629;51.444;-2.606;2023-04-03T06:57:58;4.20;80.30
39951;DHT22;25629;51.444;-2.606;2023-04-03T07:00:24;4.20;74.60
39951;DHT22;25629;51.444;-2.606;2023-04-03T07:02:50;4.30;75.60
39951;DHT22;25629;51.444;-2.606;2023-04-03T07:05:17;4.20;64.50
39951;DHT22;25629;51.444;-2.606;2023-04-03T07:07:43;4.20;67.50
39951;DHT22;25629;51.444;-2.606;2023-04-03T07:10:09;4.30;68.00
39951;DHT22;25629;51.444;-2.606;2023-04-03T07:12:36;4.30;63.00
39951;DHT22;25629;51.444;-2.606;2023-04-03T07:15:04;4.40;64.80
39951;DHT22;25629;51.444;-2.606;2023-04-03T07:17:30;4.40;62.10
39951;DHT22;25629;51.444;-2.606;2023-04-03T07:19:55;4.50;56.70
39951;DHT22;25629;51.444;-2.606;2023-04-03T07:22:21;4.70;53.50
39951;DHT22;25629;51.444;-2.606;2023-04-03T07:24:47;4.80;46.80
39951;DHT22;25629;51.444;-2.606;2023-04-03T07:27:13;5.00;34.00
39951;DHT22;25629;51.444;-2.606;2023-04-03T07:29:39;4.90;32.90
39951;DHT22;25629;51.444;-2.606;2023-04-03T07:32:05;4.90;29.80
39951;DHT22;25629;51.444;-2.606;2023-04-03T07:34:31;5.00;35.40
39951;DHT22;25629;51.444;-2.606;2023-04-03T07:36:58;5.10;37.00
39951;DHT22;25629;51.444;-2.606;2023-04-03T07:39:24;5.10;20.90
39951;DHT22;25629;51.444;-2.606;2023-04-03T07:41:50;5.20;22.50
39951;DHT22;25629;51.444;-2.606;2023-04-03T07:44:15;5.40;14.60
39951;DHT22;25629;51.444;-2.606;2023-04-03T07:46:41;5.50;5.70
39951;DHT22;25629;51.444;-2.606;2023-04-03T07:49:07;5.60;1.00
39951;DHT22;25629;51.444;-2.606;2023-04-03T07:51:33;5.80;1.00
39951;DHT22;25629;51.444;-2.606;2023-04-03T07:53:59;5.90;1.00
39951;DHT22;25629;51.444;-2.606;2023-04-03T07:56:24;6.10;1.00
39951;DHT22;25629;51.444;-2.606;2023-04-03T07:58:50;6.40;1.00
39951;DHT22;25629;51.444;-2.606;2023-04-03T08:01:16;6.50;1.00
39951;DHT22;25629;51.444;-2.606;2023-04-03T08:03:42;6.60;1.00
39951;DHT22;25629;51.444;-2.606;2023-04-03T08:06:09;6.60;99.90
39951;DHT22;25629;51.444;-2.606;2023-04-03T08:08:35;6.80;99.90
39951;DHT22;25629;51.444;-2.606;2023-04-03T08:11:02;6.90;99.90
39951;DHT22;25629;51.444;-2.606;2023-04-03T08:13:29;6.90;99.90
39951;DHT22;25629;51.444;-2.606;2023-04-03T08:15:56;6.90;99.90
39951;DHT22;25629;51.444;-2.606;2023-04-03T08:18:23;7.30;99.90
39951;DHT22;25629;51.444;-2.606;2023-04-03T08:20:51;7.60;99.90
39951;DHT22;25629;51.444;-2.606;2023-04-03T08:23:17;7.90;82.60
39951;DHT22;25629;51.444;-2.606;2023-04-03T08:25:43;8.10;5.10
39951;DHT22;25629;51.444;-2.606;2023-04-03T08:28:11;8.20;99.90
39951;DHT22;25629;51.444;-2.606;2023-04-03T08:30:39;8.30;99.90
39951;DHT22;25629;51.444;-2.606;2023-04-03T08:33:05;8.50;99.90
39951;DHT22;25629;51.444;-2.606;2023-04-03T08:35:31;8.60;99.90
39951;DHT22;25629;51.444;-2.606;2023-04-03T08:37:57;8.70;99.90
39951;DHT22;25629;51.444;-2.606;2023-04-03T08:40:23;8.90;99.90
39951;DHT22;25629;51.444;-2.606;2023-04-03T08:45:42;9.30;28.50
39951;DHT22;25629;51.444;-2.606;2023-04-03T08:48:26;9.50;99.90
39951;DHT22;25629;51.444;-2.606;2023-04-03T08:50:59;9.70;99.90
39951;DHT22;25629;51.444;-2.606;2023-04-03T08:53:28;9.90;1.00
39951;DHT22;25629;51.444;-2.606;2023-04-03T08:55:58;9.90;1.00
39951;DHT22;25629;51.444;-2.606;2023-04-03T08:58:36;10.20;1.00
39951;DHT22;25629;51.444;-2.606;2023-04-03T09:04:15;10.60;99.90
39951;DHT22;25629;51.444;-2.606;2023-04-03T09:06:54;10.60;99.90
39951;DHT22;25629;51.444;-2.606;2023-04-03T09:09:36;10.50;99.90
39951;DHT22;25629;51.444;-2.606;2023-04-03T09:12:11;10.70;99.90
39951;DHT22;25629;51.444;-2.606;2023-04-03T09:17:40;10.10;99.90
39951;DHT22;25629;51.444;-2.606;2023-04-03T09:23:01;10.30;99.90
39951;DHT22;25629;51.444;-2.606;2023-04-03T09:25:36;10.50;99.90
39951;DHT22;25629;51.444;-2.606;2023-04-03T09:28:03;10.60;99.90
39951;DHT22;25629;51.444;-2.606;2023-04-03T09:30:29;10.80;99.90
39951;DHT22;25629;51.444;-2.606;2023-04-03T09:32:56;11.20;99.90
39951;DHT22;25629;51.444;-2.606;2023-04-03T09:35:30;11.50;99.90
39951;DHT22;25629;51.444;-2.606;2023-04-03T09:40:50;11.60;94.60
39951;DHT22;25629;51.444;-2.606;2023-04-03T09:43:30;11.50;86.10
39951;DHT22;25629;51.444;-2.606;2023-04-03T09:46:16;11.50;89.30
39951;DHT22;25629;51.444;-2.606;2023-04-03T09:48:56;11.40;60.90
39951;DHT22;25629;51.444;-2.606;2023-04-03T09:51:26;11.20;69.20
39951;DHT22;25629;51.444;-2.606;2023-04-03T09:53:53;11.20;81.80
39951;DHT22;25629;51.444;-2.606;2023-04-03T09:56:20;11.20;90.00
39951;DHT22;25629;51.444;-2.606;2023-04-03T09:59:13;11.40;91.20
39951;DHT22;25629;51.444;-2.606;2023-04-03T10:01:39;11.80;84.90
39951;DHT22;25629;51.444;-2.606;2023-04-03T10:04:24;12.00;70.50
39951;DHT22;25629;51.444;-2.606;2023-04-03T10:06:55;12.30;62.60
39951;DHT22;25629;51.444;-2.606;2023-04-03T10:09:23;12.40;25.30
39951;DHT22;25629;51.444;-2.606;2023-04-03T10:12:04;12.50;9.80
39951;DHT22;25629;51.444;-2.606;2023-04-03T10:14:35;12.40;1.00
39951;DHT22;25629;51.444;-2.606;2023-04-03T10:22:50;12.60;1.00
39951;DHT22;25629;51.444;-2.606;2023-04-03T10:28:00;13.10;1.00
39951;DHT22;25629;51.444;-2.606;2023-04-03T10:33:42;13.20;1.00
39951;DHT22;25629;51.444;-2.606;2023-04-03T10:36:33;13.40;1.00
39951;DHT22;25629;51.444;-2.606;2023-04-03T10:44:44;12.80;1.00
39951;DHT22;25629;51.444;-2.606;2023-04-03T10:47:27;12.50;1.00
39951;DHT22;25629;51.444;-2.606;2023-04-03T10:53:09;12.90;1.00
39951;DHT22;25629;51.444;-2.606;2023-04-03T10:55:51;13.50;1.00
39951;DHT22;25629;51.444;-2.606;2023-04-03T10:58:26;13.70;1.00
39951;DHT22;25629;51.444;-2.606;2023-04-03T11:00:57;14.00;1.00
39951;DHT22;25629;51.444;-2.606;2023-04-03T11:03:39;14.10;1.00
39951;DHT22;25629;51.444;-2.606;2023-04-03T11:06:09;14.10;1.00
39951;DHT22;25629;51.444;-2.606;2023-04-03T11:08:44;14.00;1.00
39951;DHT22;25629;51.444;-2.606;2023-04-03T11:11:21;13.70;1.00
39951;DHT22;25629;51.444;-2.606;2023-04-03T11:19:39;14.80;1.00
39951;DHT22;25629;51.444;-2.606;2023-04-03T11:25:06;14.80;1.00
39951;DHT22;25629;51.444;-2.606;2023-04-03T11:27:41;15.10;1.00
39951;DHT22;25629;51.444;-2.606;2023-04-03T11:30:21;14.80;1.00
39951;DHT22;25629;51.444;-2.606;2023-04-03T11:35:32;14.80;1.00
39951;DHT22;25629;51.444;-2.606;2023-04-03T11:38:00;15.30;1.00
39951;DHT22;25629;51.444;-2.606;2023-04-03T11:40:30;15.50;1.00
39951;DHT22;25629;51.444;-2.606;2023-04-03T11:45:38;15.50;1.00
39951;DHT22;25629;51.444;-2.606;2023-04-03T11:53:43;14.30;1.00
39951;DHT22;25629;51.444;-2.606;2023-04-03T12:01:55;13.90;1.00
39951;DHT22;25629;51.444;-2.606;2023-04-03T12:04:26;14.40;1.00
39951;DHT22;25629;51.444;-2.606;2023-04-03T12:07:09;14.50;1.00
39951;DHT22;25629;51.444;-2.606;2023-04-03T12:15:16;14.20;1.00
39951;DHT22;25629;51.444;-2.606;2023-04-03T12:17:43;14.20;1.00
39951;DHT22;25629;51.444;-2.606;2023-04-03T12:23:28;14.80;1.00
39951;DHT22;25629;51.444;-2.606;2023-04-03T12:26:21;15.50;1.00
39951;DHT22;25629;51.444;-2.606;2023-04-03T12:28:48;16.20;1.00
39951;DHT22;25629;51.444;-2.606;2023-04-03T12:31:15;16.60;1.00
39951;DHT22;25629;51.444;-2.606;2023-04-03T12:34:12;16.90;1.00
39951;DHT22;25629;51.444;-2.606;2023-04-03T12:39:45;17.50;1.00
39951;DHT22;25629;51.444;-2.606;2023-04-03T12:45:19;17.30;1.00
39951;DHT22;25629;51.444;-2.606;2023-04-03T12:47:49;17.00;99.90
39951;DHT22;25629;51.444;-2.606;2023-04-03T12:50:32;17.10;99.90
39951;DHT22;25629;51.444;-2.606;2023-04-03T12:53:11;17.50;99.90
39951;DHT22;25629;51.444;-2.606;2023-04-03T12:55:38;17.60;99.90
39951;DHT22;25629;51.444;-2.606;2023-04-03T12:58:25;17.60;99.90
39951;DHT22;25629;51.444;-2.606;2023-04-03T13:01:11;17.90;99.90
39951;DHT22;25629;51.444;-2.606;2023-04-03T13:03:43;18.20;99.90
39951;DHT22;25629;51.444;-2.606;2023-04-03T13:06:32;18.30;99.90
39951;DHT22;25629;51.444;-2.606;2023-04-03T13:09:01;18.50;99.90
39951;DHT22;25629;51.444;-2.606;2023-04-03T13:11:36;18.40;99.90
39951;DHT22;25629;51.444;-2.606;2023-04-03T13:14:04;18.70;99.90
39951;DHT22;25629;51.444;-2.606;2023-04-03T13:16:30;19.00;99.90
39951;DHT22;25629;51.444;-2.606;2023-04-03T13:18:57;19.40;99.90
39951;DHT22;25629;51.444;-2.606;2023-04-03T13:21:28;19.50;99.90
39951;DHT22;25629;51.444;-2.606;2023-04-03T13:23:58;19.40;99.90
39951;DHT22;25629;51.444;-2.606;2023-04-03T13:26:27;19.70;99.90
39951;DHT22;25629;51.444;-2.606;2023-04-03T13:28:57;19.00;99.90
39951;DHT22;25629;51.444;-2.606;2023-04-03T13:31:36;19.20;99.90
39951;DHT22;25629;51.444;-2.606;2023-04-03T13:34:13;19.80;99.90
39951;DHT22;25629;51.444;-2.606;2023-04-03T13:41:50;20.80;99.90
39951;DHT22;25629;51.444;-2.606;2023-04-03T13:46:49;20.70;99.90
39951;DHT22;25629;51.444;-2.606;2023-04-03T13:51:51;20.90;99.90
39951;DHT22;25629;51.444;-2.606;2023-04-03T13:54:24;21.10;99.90
39951;DHT22;25629;51.444;-2.606;2023-04-03T13:56:56;20.80;99.90
39951;DHT22;25629;51.444;-2.606;2023-04-03T13:59:33;20.90;99.90
39951;DHT22;25629;51.444;-2.606;2023-04-03T14:07:11;20.60;99.90
39951;DHT22;25629;51.444;-2.606;2023-04-03T14:09:37;21.20;99.90
39951;DHT22;25629;51.444;-2.606;2023-04-03T14:12:07;21.50;99.90
39951;DHT22;25629;51.444;-2.606;2023-04-03T14:14:35;22.20;99.90
39951;DHT22;25629;51.444;-2.606;2023-04-03T14:17:17;22.40;99.90
39951;DHT22;25629;51.444;-2.606;2023-04-03T14:19:44;21.90;99.90
39951;DHT22;25629;51.444;-2.606;2023-04-03T14:22:22;21.80;99.90
39951;DHT22;25629;51.444;-2.606;2023-04-03T14:24:50;21.20;99.90
39951;DHT22;25629;51.444;-2.606;2023-04-03T14:29:46;21.80;99.90
39951;DHT22;25629;51.444;-2.606;2023-04-03T14:32:13;22.60;99.90
39951;DHT22;25629;51.444;-2.606;2023-04-03T14:34:40;22.60;99.90
39951;DHT22;25629;51.444;-2.606;2023-04-03T14:37:13;22.50;99.90
39951;DHT22;25629;51.444;-2.606;2023-04-03T14:39:40;21.80;99.90
39951;DHT22;25629;51.444;-2.606;2023-04-03T14:42:09;21.60;99.90
39951;DHT22;25629;51.444;-2.606;2023-04-03T14:44:35;21.70;99.90
39951;DHT22;25629;51.444;-2.606;2023-04-03T14:47:01;22.40;99.90
39951;DHT22;25629;51.444;-2.606;2023-04-03T14:49:28;22.80;99.90
39951;DHT22;25629;51.444;-2.606;2023-04-03T14:51:55;23.70;99.90
39951;DHT22;25629;51.444;-2.606;2023-04-03T14:54:22;24.00;99.90
39951;DHT22;25629;51.444;-2.606;2023-04-03T14:56:53;23.90;99.90
39951;DHT22;25629;51.444;-2.606;2023-04-03T14:59:21;23.30;99.90
39951;DHT22;25629;51.444;-2.606;2023-04-03T15:01:47;22.80;99.90
39951;DHT22;25629;51.444;-2.606;2023-04-03T15:04:18;23.00;99.90
39951;DHT22;25629;51.444;-2.606;2023-04-03T15:06:45;23.70;99.90
39951;DHT22;25629;51.444;-2.606;2023-04-03T15:09:23;24.30;99.90
39951;DHT22;25629;51.444;-2.606;2023-04-03T15:11:51;24.30;99.90
39951;DHT22;25629;51.444;-2.606;2023-04-03T15:14:17;23.90;99.90
39951;DHT22;25629;51.444;-2.606;2023-04-03T15:16:43;23.30;99.90
39951;DHT22;25629;51.444;-2.606;2023-04-03T15:19:09;23.00;99.90
39951;DHT22;25629;51.444;-2.606;2023-04-03T15:21:35;23.20;99.90
39951;DHT22;25629;51.444;-2.606;2023-04-03T15:24:01;23.30;99.90
39951;DHT22;25629;51.444;-2.606;2023-04-03T15:26:27;24.00;99.90
39951;DHT22;25629;51.444;-2.606;2023-04-03T15:28:53;23.90;99.90
39951;DHT22;25629;51.444;-2.606;2023-04-03T15:31:19;23.90;99.90
39951;DHT22;25629;51.444;-2.606;2023-04-03T15:33:44;24.50;99.90
39951;DHT22;25629;51.444;-2.606;2023-04-03T15:36:10;24.50;99.90
39951;DHT22;25629;51.444;-2.606;2023-04-03T15:38:36;23.80;99.90
39951;DHT22;25629;51.444;-2.606;2023-04-03T15:41:04;24.10;99.90
39951;DHT22;25629;51.444;-2.606;2023-04-03T15:43:30;24.20;99.90
39951;DHT22;25629;51.444;-2.606;2023-04-03T15:45:58;24.10;99.90
39951;DHT22;25629;51.444;-2.606;2023-04-03T15:48:25;24.30;99.90
39951;DHT22;25629;51.444;-2.606;2023-04-03T15:50:51;23.90;99.90
39951;DHT22;25629;51.444;-2.606;2023-04-03T15:53:16;23.70;99.90
39951;DHT22;25629;51.444;-2.606;2023-04-03T15:55:42;23.60;99.90
39951;DHT22;25629;51.444;-2.606;2023-04-03T15:58:08;24.40;99.90
39951;DHT22;25629;51.444;-2.606;2023-04-03T16:00:35;25.00;99.90
39951;DHT22;25629;51.444;-2.606;2023-04-03T16:03:08;25.10;99.90
39951;DHT22;25629;51.444;-2.606;2023-04-03T16:05:37;24.50;99.90
39951;DHT22;25629;51.444;-2.606;2023-04-03T16:08:05;24.00;99.90
39951;DHT22;25629;51.444;-2.606;2023-04-03T16:10:33;24.10;99.90
39951;DHT22;25629;51.444;-2.606;2023-04-03T16:12:59;24.40;99.90
39951;DHT22;25629;51.444;-2.606;2023-04-03T16:15:26;24.90;99.90
39951;DHT22;25629;51.444;-2.606;2023-04-03T16:17:52;25.60;99.90
39951;DHT22;25629;51.444;-2.606;2023-04-03T16:20:18;25.50;99.90
39951;DHT22;25629;51.444;-2.606;2023-04-03T16:22:44;25.20;99.90
39951;DHT22;25629;51.444;-2.606;2023-04-03T16:25:11;24.80;99.90
39951;DHT22;25629;51.444;-2.606;2023-04-03T16:27:37;25.50;99.90
39951;DHT22;25629;51.444;-2.606;2023-04-03T16:30:04;25.80;99.90
39951;DHT22;25629;51.444;-2.606;2023-04-03T16:32:31;26.10;99.90
39951;DHT22;25629;51.444;-2.606;2023-04-03T16:34:58;25.90;99.90
39951;DHT22;25629;51.444;-2.606;2023-04-03T16:37:24;25.80;99.90
39951;DHT22;25629;51.444;-2.606;2023-04-03T16:39:49;25.60;99.90
39951;DHT22;25629;51.444;-2.606;2023-04-03T16:42:15;25.40;99.90
39951;DHT22;25629;51.444;-2.606;2023-04-03T16:44:41;25.30;99.90
39951;DHT22;25629;51.444;-2.606;2023-04-03T16:47:07;24.80;99.90
39951;DHT22;25629;51.444;-2.606;2023-04-03T16:49:34;25.10;99.90
39951;DHT22;25629;51.444;-2.606;2023-04-03T16:52:04;25.30;99.90
39951;DHT22;25629;51.444;-2.606;2023-04-03T16:54:31;24.40;99.90
39951;DHT22;25629;51.444;-2.606;2023-04-03T16:56:57;23.70;99.90
39951;DHT22;25629;51.444;-2.606;2023-04-03T16:59:23;24.10;99.90
39951;DHT22;25629;51.444;-2.606;2023-04-03T17:01:49;23.30;99.90
39951;DHT22;25629;51.444;-2.606;2023-04-03T17:04:15;22.50;99.90
39951;DHT22;25629;51.444;-2.606;2023-04-03T17:06:41;22.00;99.90
39951;DHT22;25629;51.444;-2.606;2023-04-03T17:09:07;21.40;99.90
39951;DHT22;25629;51.444;-2.606;2023-04-03T17:11:34;21.40;99.90
39951;DHT22;25629;51.444;-2.606;2023-04-03T17:14:00;21.20;99.90
39951;DHT22;25629;51.444;-2.606;2023-04-03T17:16:26;21.00;99.90
39951;DHT22;25629;51.444;-2.606;2023-04-03T17:18:52;21.20;99.90
39951;DHT22;25629;51.444;-2.606;2023-04-03T17:21:19;21.10;99.90